Terminal Aerodrome Forecast
Issued by NWS Jacksonville, FL

Home | Current Version | Previous Version | Text Only | Print | Product List | Glossary On
Versions: 1 2 3 4 5 6 7 8 9 10 11 12 13 14 15 16 17 18 19 20 21 22 23 24 25 26 27 28
000
FTUS42 KJAX 200300 AAB
TAFSSI
TAF AMD
KSSI 200320Z 2003/2024 36012G20KT P6SM OVC008
      TEMPO 2004/2008 2SM -DZ OVC005
     FM200800 36017G26KT P6SM OVC005
      TEMPO 2008/2012 2SM -DZ OVC003
     FM201600 36016G28KT P6SM BKN010=

USA.gov is the U.S. government's official web portal to all federal, state and local government web resources and services.